createdAt,value
2018-06-11T00:02:27.654Z,99.90
2018-06-11T00:04:58.864Z,99.90
2018-06-11T00:07:30.140Z,99.90
2018-06-11T00:10:01.879Z,99.90
2018-06-11T00:12:33.466Z,99.90
2018-06-11T00:15:04.877Z,99.90
2018-06-11T00:17:36.447Z,99.90
2018-06-11T00:20:07.441Z,99.90
2018-06-11T00:22:39.352Z,99.90
2018-06-11T00:25:10.582Z,99.90
2018-06-11T00:27:41.721Z,99.90
2018-06-11T00:30:12.795Z,99.90
2018-06-11T00:32:43.957Z,99.90
2018-06-11T00:35:15.023Z,99.90
2018-06-11T00:37:45.978Z,99.90
2018-06-11T00:40:17.266Z,99.90
2018-06-11T00:42:48.240Z,99.90
2018-06-11T00:45:19.092Z,99.90
2018-06-11T00:47:50.198Z,99.90
2018-06-11T00:50:21.165Z,99.90
2018-06-11T00:55:22.884Z,99.90
2018-06-11T00:57:53.776Z,99.90
2018-06-11T01:00:25.095Z,99.90
2018-06-11T01:02:56.157Z,99.90
2018-06-11T01:05:27.418Z,99.90
2018-06-11T01:07:59.062Z,99.90
2018-06-11T01:10:30.053Z,99.90
2018-06-11T01:13:02.122Z,99.90
2018-06-11T01:18:03.765Z,99.90
2018-06-11T01:20:34.760Z,99.90
2018-06-11T01:23:06.277Z,99.90
2018-06-11T01:25:37.290Z,99.90
2018-06-11T01:28:08.218Z,99.90
2018-06-11T01:30:39.309Z,99.90
2018-06-11T01:33:10.278Z,99.90
2018-06-11T01:35:42.445Z,99.90
2018-06-11T01:38:13.283Z,99.90
2018-06-11T01:40:44.456Z,99.90
2018-06-11T01:43:15.604Z,99.90
2018-06-11T01:45:46.559Z,99.90
2018-06-11T01:48:17.508Z,99.90
2018-06-11T01:50:48.744Z,99.90
2018-06-11T01:53:19.987Z,99.90
2018-06-11T01:55:51.395Z,99.90
2018-06-11T01:58:23.708Z,99.90
2018-06-11T02:00:54.993Z,99.90
2018-06-11T02:03:27.098Z,99.90
2018-06-11T02:05:58.379Z,99.90
2018-06-11T02:08:29.408Z,99.90
2018-06-11T02:11:01.301Z,99.90
2018-06-11T02:13:32.491Z,99.90
2018-06-11T02:16:03.401Z,99.90
2018-06-11T02:18:34.499Z,99.90
2018-06-11T02:21:05.551Z,99.90
2018-06-11T02:23:36.586Z,99.90
2018-06-11T02:26:07.562Z,99.90
2018-06-11T02:28:38.676Z,99.90
2018-06-11T02:31:10.050Z,99.90
2018-06-11T02:33:41.240Z,99.90
2018-06-11T02:36:12.495Z,99.90
2018-06-11T02:38:43.524Z,99.90
2018-06-11T02:41:14.614Z,99.90
2018-06-11T02:43:46.929Z,99.90
2018-06-11T02:46:18.251Z,99.90
2018-06-11T02:48:50.268Z,99.90
2018-06-11T02:51:21.580Z,99.90
2018-06-11T02:53:52.949Z,99.90
2018-06-11T02:56:25.067Z,99.90
2018-06-11T02:58:56.249Z,99.90
2018-06-11T03:01:27.658Z,99.90
2018-06-11T03:03:58.902Z,99.90
2018-06-11T03:06:30.053Z,99.90
2018-06-11T03:09:00.978Z,99.90
2018-06-11T03:11:34.500Z,99.90
2018-06-11T03:14:05.821Z,99.90
2018-06-11T03:16:37.019Z,99.90
2018-06-11T03:19:08.219Z,99.90
2018-06-11T03:21:39.295Z,99.90
2018-06-11T03:26:40.996Z,99.90
2018-06-11T03:29:11.996Z,99.90
2018-06-11T03:31:42.910Z,99.90
2018-06-11T03:34:14.799Z,99.90
2018-06-11T03:39:16.325Z,99.90
2018-06-11T03:41:47.541Z,99.90
2018-06-11T03:44:18.575Z,99.90
2018-06-11T03:46:49.558Z,99.90
2018-06-11T03:49:21.557Z,99.90
2018-06-11T03:51:52.364Z,99.90
2018-06-11T03:54:23.307Z,99.90
2018-06-11T03:56:54.587Z,99.90
2018-06-11T03:59:26.971Z,99.90
2018-06-11T04:01:58.007Z,99.90
2018-06-11T04:04:28.993Z,99.90
2018-06-11T04:07:00.079Z,99.90
2018-06-11T04:09:31.171Z,99.90
2018-06-11T04:12:02.381Z,99.90
2018-06-11T04:14:33.392Z,99.90
2018-06-11T04:17:05.125Z,99.90
2018-06-11T04:19:36.182Z,99.90
2018-06-11T04:22:07.474Z,99.90
2018-06-11T04:24:38.487Z,99.90
2018-06-11T04:27:09.548Z,99.90
2018-06-11T04:29:41.007Z,99.90
2018-06-11T04:34:43.867Z,99.90
2018-06-11T04:37:14.708Z,99.90
2018-06-11T04:39:45.846Z,99.90
2018-06-11T04:42:18.104Z,99.90
2018-06-11T04:44:49.193Z,99.90
2018-06-11T04:49:50.821Z,99.90
2018-06-11T04:54:52.468Z,99.90
2018-06-11T04:57:23.811Z,99.90
2018-06-11T04:59:54.793Z,99.90
2018-06-11T05:02:25.944Z,99.90
2018-06-11T05:04:56.907Z,99.90
2018-06-11T05:07:28.063Z,99.90
2018-06-11T05:09:59.027Z,99.90
2018-06-11T05:12:29.990Z,99.90
2018-06-11T05:15:00.973Z,99.90
2018-06-11T05:17:33.493Z,99.90
2018-06-11T05:20:04.643Z,99.90
2018-06-11T05:22:35.506Z,99.90
2018-06-11T05:25:06.702Z,99.90
2018-06-11T05:27:37.587Z,99.90
2018-06-11T05:30:08.829Z,99.90
2018-06-11T05:32:40.841Z,99.90
2018-06-11T05:35:12.738Z,99.90
2018-06-11T05:37:43.874Z,99.90
2018-06-11T05:40:14.936Z,99.90
2018-06-11T05:42:46.152Z,99.90
2018-06-11T05:47:48.303Z,99.90
2018-06-11T05:50:19.570Z,99.90
2018-06-11T05:52:50.934Z,99.90
2018-06-11T05:55:22.663Z,99.90
2018-06-11T05:57:56.278Z,99.90
2018-06-11T06:00:27.851Z,99.90
2018-06-11T06:02:59.948Z,99.90
2018-06-11T06:05:32.606Z,99.90
2018-06-11T06:08:04.400Z,99.90
2018-06-11T06:10:35.498Z,99.90
2018-06-11T06:13:06.674Z,99.90
2018-06-11T06:15:39.593Z,99.90
2018-06-11T06:18:10.730Z,99.90
2018-06-11T06:20:42.173Z,99.90
2018-06-11T06:23:13.731Z,99.90
2018-06-11T06:25:45.731Z,99.90
2018-06-11T06:28:17.015Z,99.90
2018-06-11T06:30:49.245Z,99.90
2018-06-11T06:33:20.526Z,99.90
2018-06-11T06:35:52.200Z,99.90
2018-06-11T06:38:23.650Z,99.90
2018-06-11T06:40:54.841Z,99.90
2018-06-11T06:43:26.252Z,99.90
2018-06-11T06:45:58.742Z,99.90
2018-06-11T06:48:30.062Z,99.90
2018-06-11T06:51:01.664Z,99.90
2018-06-11T06:53:32.564Z,99.90
2018-06-11T06:56:03.798Z,99.90
2018-06-11T06:58:37.123Z,99.90
2018-06-11T07:01:08.348Z,98.20
2018-06-11T07:03:39.593Z,97.60
2018-06-11T07:06:12.262Z,97.50
2018-06-11T07:08:43.856Z,96.60
2018-06-11T07:11:16.128Z,95.00
2018-06-11T07:13:48.085Z,95.10
2018-06-11T07:16:20.314Z,92.60
2018-06-11T07:18:51.821Z,92.30
2018-06-11T07:21:23.209Z,92.30
2018-06-11T07:23:54.589Z,92.20
2018-06-11T07:26:26.550Z,91.70
2018-06-11T07:28:58.489Z,91.10
2018-06-11T07:31:30.040Z,90.50
2018-06-11T07:34:01.423Z,89.00
2018-06-11T07:36:33.201Z,88.20
2018-06-11T07:39:07.437Z,87.30
2018-06-11T07:44:11.589Z,84.90
2018-06-11T07:46:42.936Z,84.70
2018-06-11T07:49:15.703Z,85.00
2018-06-11T07:51:47.747Z,84.10
2018-06-11T07:56:50.279Z,81.20
2018-06-11T07:59:22.754Z,81.10
2018-06-11T08:01:54.292Z,80.50
2018-06-11T08:04:25.816Z,79.00
2018-06-11T08:06:57.939Z,78.00
2018-06-11T08:09:29.382Z,75.90
2018-06-11T08:12:09.613Z,74.90
2018-06-11T08:14:41.366Z,75.00
2018-06-11T08:17:13.297Z,75.20
2018-06-11T08:19:45.096Z,74.50
2018-06-11T08:22:16.596Z,73.20
2018-06-11T08:24:47.891Z,72.30
2018-06-11T08:27:20.406Z,71.00
2018-06-11T08:29:51.819Z,69.20
2018-06-11T08:32:23.478Z,67.70
2018-06-11T08:34:54.694Z,67.60
2018-06-11T08:37:26.580Z,68.20
2018-06-11T08:39:57.835Z,67.50
2018-06-11T08:42:29.241Z,66.60
2018-06-11T08:45:01.345Z,66.30
2018-06-11T08:47:32.340Z,64.70
2018-06-11T08:50:03.639Z,62.20
2018-06-11T08:52:34.936Z,61.70
2018-06-11T08:55:06.253Z,61.40
2018-06-11T08:57:37.685Z,61.10
2018-06-11T09:00:09.940Z,59.00
2018-06-11T09:02:41.999Z,56.80
2018-06-11T09:05:13.279Z,56.50
2018-06-11T09:07:45.239Z,55.60
2018-06-11T09:10:17.563Z,55.50
2018-06-11T09:12:48.867Z,55.40
2018-06-11T09:15:21.844Z,54.50
2018-06-11T09:17:53.064Z,52.20
2018-06-11T09:20:24.171Z,52.90
2018-06-11T09:22:55.334Z,54.10
2018-06-11T09:25:26.642Z,53.00
2018-06-11T09:27:58.813Z,52.30
2018-06-11T09:30:30.892Z,52.90
2018-06-11T09:33:01.968Z,54.70
2018-06-11T09:35:33.165Z,53.70
2018-06-11T09:40:36.402Z,56.20
2018-06-11T09:45:40.250Z,53.50
2018-06-11T09:48:11.826Z,53.00
2018-06-11T09:50:43.135Z,51.20
2018-06-11T09:53:14.514Z,50.80
2018-06-11T09:55:45.893Z,53.10
2018-06-11T09:58:17.544Z,54.80
2018-06-11T10:00:49.841Z,55.40
2018-06-11T10:03:21.579Z,55.40
2018-06-11T10:05:53.707Z,53.60
2018-06-11T10:22:49.751Z,51.10
2018-06-11T10:25:22.421Z,51.10
2018-06-11T10:27:54.470Z,52.80
2018-06-11T10:30:27.491Z,53.20
2018-06-11T10:32:58.841Z,53.70
2018-06-11T10:35:30.033Z,53.70
2018-06-11T10:38:01.182Z,55.30
2018-06-11T10:40:32.791Z,56.10
2018-06-11T10:43:04.184Z,55.00
2018-06-11T10:45:35.192Z,53.00
2018-06-11T10:48:06.784Z,51.80
2018-06-11T10:50:38.819Z,50.50
2018-06-11T10:53:10.601Z,50.10
2018-06-11T10:55:41.919Z,49.30
2018-06-11T10:58:13.417Z,49.30
2018-06-11T11:00:44.851Z,49.60
2018-06-11T11:03:16.699Z,48.90
2018-06-11T11:05:48.630Z,47.50
2018-06-11T11:08:20.953Z,45.80
2018-06-11T11:10:52.207Z,45.60
2018-06-11T11:13:23.649Z,45.80
2018-06-11T11:15:55.058Z,44.80
2018-06-11T11:18:26.563Z,47.60
2018-06-11T11:20:58.059Z,48.50
2018-06-11T11:23:29.461Z,46.40
2018-06-11T11:26:01.574Z,51.60
2018-06-11T11:28:32.468Z,49.20
2018-06-11T11:33:34.270Z,47.00
2018-06-11T11:36:05.905Z,46.60
2018-06-11T11:38:38.833Z,45.40
2018-06-11T11:41:10.645Z,47.40
2018-06-11T11:43:43.044Z,48.20
2018-06-11T11:46:14.250Z,47.50
2018-06-11T11:48:45.682Z,46.30
2018-06-11T11:51:16.799Z,47.00
2018-06-11T11:53:48.254Z,46.50
2018-06-11T11:56:21.197Z,45.20
2018-06-11T11:58:53.227Z,45.10
2018-06-11T12:01:24.980Z,44.40
2018-06-11T12:03:56.297Z,44.10
2018-06-11T12:06:28.438Z,45.00
2018-06-11T12:08:59.692Z,44.70
2018-06-11T12:11:30.914Z,44.70
2018-06-11T12:14:02.960Z,42.60
2018-06-11T12:16:36.116Z,44.00
2018-06-11T12:19:07.386Z,47.30
2018-06-11T12:21:38.791Z,47.50
2018-06-11T12:24:10.650Z,45.90
2018-06-11T12:26:42.384Z,45.80
2018-06-11T12:29:13.568Z,44.30
2018-06-11T12:31:45.328Z,44.10
2018-06-11T12:34:17.472Z,43.80
2018-06-11T12:36:48.761Z,42.00
2018-06-11T12:39:20.967Z,43.50
2018-06-11T12:44:24.375Z,43.30
2018-06-11T12:46:55.269Z,41.90
2018-06-11T12:54:29.083Z,43.80
2018-06-11T12:57:00.205Z,46.20
2018-06-11T12:59:31.818Z,46.70
2018-06-11T13:04:35.568Z,47.10
2018-06-11T13:07:07.248Z,50.40
2018-06-11T13:09:39.568Z,51.10
2018-06-11T13:12:10.836Z,49.00
2018-06-11T13:14:42.085Z,49.90
2018-06-11T13:17:13.244Z,50.90
2018-06-11T13:19:44.548Z,51.80
2018-06-11T13:22:16.324Z,50.70
2018-06-11T13:24:47.908Z,49.00
2018-06-11T13:27:19.818Z,50.40
2018-06-11T13:29:51.088Z,52.90
2018-06-11T13:32:22.390Z,53.40
2018-06-11T13:34:54.465Z,52.00
2018-06-11T13:37:26.062Z,51.60
2018-06-11T13:39:57.920Z,50.80
2018-06-11T13:42:30.040Z,50.30
2018-06-11T13:45:01.706Z,49.90
2018-06-11T13:47:32.666Z,49.80
2018-06-11T13:50:04.061Z,50.60
2018-06-11T13:52:36.483Z,51.50
2018-06-11T13:55:08.373Z,52.40
2018-06-11T13:57:39.572Z,51.50
2018-06-11T14:00:11.817Z,51.10
2018-06-11T14:02:43.249Z,54.50
2018-06-11T14:05:19.910Z,54.30
2018-06-11T14:07:52.224Z,53.00
2018-06-11T14:10:23.253Z,52.50
2018-06-11T14:12:56.369Z,52.90
2018-06-11T14:15:28.151Z,52.80
2018-06-11T14:18:00.140Z,54.40
2018-06-11T14:20:31.257Z,53.60
2018-06-11T14:23:02.733Z,52.90
2018-06-11T14:25:34.649Z,54.50
2018-06-11T14:28:06.087Z,57.00
2018-06-11T14:30:39.122Z,62.40
2018-06-11T14:33:11.369Z,62.60
2018-06-11T14:35:42.983Z,64.00
2018-06-11T14:38:14.511Z,60.70
2018-06-11T14:40:45.615Z,59.50
2018-06-11T14:43:17.167Z,58.80
2018-06-11T14:45:48.893Z,56.50
2018-06-11T14:48:20.344Z,56.80
2018-06-11T14:50:51.647Z,57.80
2018-06-11T14:53:23.538Z,62.80
2018-06-11T14:55:54.877Z,64.00
2018-06-11T14:58:26.275Z,67.30
2018-06-11T15:00:58.848Z,67.70
2018-06-11T15:03:29.983Z,68.30
2018-06-11T15:06:01.318Z,71.60
2018-06-11T15:08:32.639Z,72.00
2018-06-11T15:11:04.050Z,73.80
2018-06-11T15:13:35.511Z,73.80
2018-06-11T15:16:08.461Z,74.40
2018-06-11T15:21:11.037Z,75.00
2018-06-11T15:23:43.647Z,76.60
2018-06-11T15:26:15.988Z,75.20
2018-06-11T15:28:48.207Z,74.60
2018-06-11T15:31:19.870Z,74.50
2018-06-11T15:33:52.517Z,74.60
2018-06-11T15:36:24.049Z,74.00
2018-06-11T15:38:56.728Z,76.70
2018-06-11T15:41:28.206Z,75.90
2018-06-11T15:44:00.269Z,76.00
2018-06-11T15:46:31.653Z,75.10
2018-06-11T15:49:02.981Z,74.80
2018-06-11T15:54:07.081Z,74.10
2018-06-11T15:56:38.487Z,75.20
2018-06-11T15:59:11.295Z,75.60
2018-06-11T16:01:42.659Z,74.70
2018-06-11T16:04:14.057Z,76.30
2018-06-11T16:11:47.463Z,72.30
2018-06-11T16:14:18.617Z,72.50
2018-06-11T16:16:49.833Z,73.20
2018-06-11T16:19:21.105Z,74.00
2018-06-11T16:21:52.999Z,73.80
2018-06-11T16:24:24.481Z,74.60
2018-06-11T16:26:55.969Z,74.70
2018-06-11T16:29:27.562Z,77.40
2018-06-11T16:31:59.005Z,78.60
2018-06-11T16:34:30.857Z,78.60
2018-06-11T16:37:03.771Z,80.00
2018-06-11T16:39:35.868Z,81.00
2018-06-11T16:42:07.366Z,80.80
2018-06-11T16:44:39.354Z,81.70
2018-06-11T16:47:11.773Z,83.60
2018-06-11T16:49:43.533Z,83.50
2018-06-11T16:52:16.556Z,83.90
2018-06-11T16:54:48.730Z,81.50
2018-06-11T16:57:20.814Z,83.40
2018-06-11T16:59:52.117Z,84.50
2018-06-11T17:02:24.612Z,85.70
2018-06-11T17:04:56.156Z,86.10
2018-06-11T17:07:27.534Z,85.90
2018-06-11T17:09:59.965Z,85.10
2018-06-11T17:12:32.134Z,86.00
2018-06-11T17:15:03.723Z,87.60
2018-06-11T17:17:35.586Z,87.40
2018-06-11T17:20:07.562Z,91.60
2018-06-11T17:22:40.965Z,93.30
2018-06-11T17:25:13.542Z,94.40
2018-06-11T17:27:45.803Z,94.90
2018-06-11T17:30:18.522Z,95.80
2018-06-11T17:32:50.245Z,96.30
2018-06-11T17:35:23.589Z,96.70
2018-06-11T17:37:56.962Z,97.50
2018-06-11T17:40:28.954Z,97.80
2018-06-11T17:43:00.847Z,98.30
2018-06-11T17:45:33.259Z,99.60
2018-06-11T17:48:04.671Z,99.90
2018-06-11T17:50:36.040Z,99.90
2018-06-11T17:53:07.538Z,99.90
2018-06-11T17:55:39.011Z,99.90
2018-06-11T17:58:10.371Z,99.90
2018-06-11T18:00:41.731Z,99.90
2018-06-11T18:03:14.054Z,99.90
2018-06-11T18:05:46.484Z,99.90
2018-06-11T18:08:18.367Z,99.90
2018-06-11T18:10:50.508Z,99.90
2018-06-11T18:13:24.410Z,99.90
2018-06-11T18:15:56.700Z,99.90
2018-06-11T18:18:28.846Z,99.90
2018-06-11T18:21:02.287Z,99.90
2018-06-11T18:23:35.918Z,99.90
2018-06-11T18:26:09.312Z,99.90
2018-06-11T18:28:41.683Z,99.90
2018-06-11T18:31:14.353Z,99.90
2018-06-11T18:38:53.105Z,99.90
2018-06-11T18:41:26.329Z,99.90
2018-06-11T18:44:00.091Z,99.90
2018-06-11T18:46:34.072Z,99.90
2018-06-11T18:51:41.404Z,99.90
2018-06-11T18:54:14.606Z,99.90
2018-06-11T18:56:48.144Z,99.90
2018-06-11T18:59:21.129Z,99.90
2018-06-11T19:01:53.738Z,99.90
2018-06-11T19:04:26.828Z,99.90
2018-06-11T19:06:59.633Z,99.90
2018-06-11T19:09:32.717Z,99.90
2018-06-11T19:12:05.470Z,99.90
2018-06-11T19:14:40.588Z,99.90
2018-06-11T19:17:13.231Z,99.90
2018-06-11T19:22:20.975Z,99.90
2018-06-11T19:24:54.356Z,99.90
2018-06-11T19:27:30.713Z,99.90
2018-06-11T19:30:03.682Z,99.90
2018-06-11T19:35:09.072Z,99.90
2018-06-11T19:37:42.437Z,99.90
2018-06-11T19:40:20.023Z,99.90
2018-06-11T19:42:53.404Z,99.90
2018-06-11T19:45:26.753Z,99.90
2018-06-11T19:48:02.096Z,99.90
2018-06-11T19:50:37.004Z,99.90
2018-06-11T19:58:15.624Z,99.90
2018-06-11T20:00:49.070Z,99.90
2018-06-11T20:03:23.500Z,99.90
2018-06-11T20:05:57.901Z,99.90
2018-06-11T20:11:06.044Z,99.90
2018-06-11T20:13:40.710Z,99.90
2018-06-11T20:16:16.740Z,99.90
2018-06-11T20:18:53.576Z,99.90
2018-06-11T20:21:26.600Z,99.90
2018-06-11T20:24:00.599Z,99.90
2018-06-11T20:26:36.987Z,99.90
2018-06-11T20:29:10.159Z,99.90
2018-06-11T20:31:45.190Z,99.90
2018-06-11T20:34:17.900Z,99.90
2018-06-11T20:36:51.210Z,99.90
2018-06-11T20:39:25.464Z,99.90
2018-06-11T20:41:58.941Z,99.90
2018-06-11T20:44:32.352Z,99.90
2018-06-11T20:47:05.556Z,99.90
2018-06-11T20:49:38.580Z,99.90
2018-06-11T20:52:12.056Z,99.90
2018-06-11T20:54:44.809Z,99.90
2018-06-11T20:57:17.931Z,99.90
2018-06-11T21:02:22.238Z,99.90
2018-06-11T21:04:55.893Z,99.90
2018-06-11T21:10:01.272Z,99.90
2018-06-11T21:12:32.953Z,99.90
2018-06-11T21:15:04.916Z,99.90
2018-06-11T21:17:36.305Z,99.90
2018-06-11T21:20:07.786Z,99.90
2018-06-11T21:22:41.347Z,99.90
2018-06-11T21:25:13.791Z,99.90
2018-06-11T21:27:45.154Z,99.90
2018-06-11T21:30:16.313Z,99.90
2018-06-11T21:32:48.304Z,99.90
2018-06-11T21:35:19.646Z,99.90
2018-06-11T21:37:51.588Z,99.90
2018-06-11T21:40:23.470Z,99.90
2018-06-11T21:42:54.528Z,99.90
2018-06-11T21:45:26.004Z,99.90
2018-06-11T21:47:57.264Z,99.90
2018-06-11T21:50:28.243Z,99.90
2018-06-11T21:52:59.467Z,99.90
2018-06-11T21:55:31.248Z,99.90
2018-06-11T21:58:03.179Z,99.90
2018-06-11T22:00:34.877Z,99.90
2018-06-11T22:03:07.321Z,99.90
2018-06-11T22:05:39.123Z,99.90
2018-06-11T22:08:10.703Z,99.90
2018-06-11T22:10:42.311Z,99.90
2018-06-11T22:13:14.498Z,99.90
2018-06-11T22:15:45.788Z,99.90
2018-06-11T22:18:17.361Z,99.90
2018-06-11T22:20:48.929Z,99.90
2018-06-11T22:23:20.687Z,99.90
2018-06-11T22:25:52.352Z,99.90
2018-06-11T22:28:23.910Z,99.90
2018-06-11T22:30:57.325Z,99.90
2018-06-11T22:33:29.760Z,99.90
2018-06-11T22:36:01.245Z,99.90
2018-06-11T22:38:32.542Z,99.90
2018-06-11T22:41:03.763Z,99.90
2018-06-11T22:43:34.856Z,99.90
2018-06-11T22:46:06.635Z,99.90
2018-06-11T22:48:39.918Z,99.90
2018-06-11T22:51:11.256Z,99.90
2018-06-11T22:53:42.704Z,99.90
2018-06-11T22:58:44.914Z,99.90
2018-06-11T23:01:16.184Z,99.90
2018-06-11T23:06:18.881Z,99.90
2018-06-11T23:08:50.543Z,99.90
2018-06-11T23:11:21.428Z,99.90
2018-06-11T23:13:52.489Z,99.90
2018-06-11T23:16:24.399Z,99.90
2018-06-11T23:18:55.254Z,99.90
2018-06-11T23:21:26.541Z,99.90
2018-06-11T23:23:58.632Z,99.90
2018-06-11T23:26:30.139Z,99.90
2018-06-11T23:29:02.134Z,99.90
2018-06-11T23:31:33.517Z,99.90
2018-06-11T23:34:04.510Z,99.90
2018-06-11T23:36:35.534Z,99.90
2018-06-11T23:39:08.354Z,99.90
2018-06-11T23:41:39.427Z,99.90
2018-06-11T23:44:10.429Z,99.90
2018-06-11T23:46:41.708Z,99.90
2018-06-11T23:49:13.814Z,99.90
2018-06-11T23:51:44.672Z,99.90
2018-06-11T23:54:15.726Z,99.90
2018-06-11T23:56:46.823Z,99.90
2018-06-11T23:59:18.505Z,99.90
